FCO weather

Leonardo da Vinci–Fiumicino Airport
Rome, Lazio, Italy

Public forecast

Using degrees Celsius for public forecast. Weather courtesy of forecast.io.

METAR (pilot weather report)

Retrieved 2019/02/18 15:50 UTC (15 minutes ago):

LIRF 181550Z 25005KT 9999 SCT032 13/06 Q1024 NOSIG

TAF (pilot weather forecast)

Retrieved 2019/02/18 12:00 UTC (4 hours ago):

TAF LIRF 181100Z 1812/1918 VRB06KT 8000 BKN025 BECMG 1819/1821 4000 BR TEMPO 1900/1906 2000 BECMG 1906/1908 6000